createdAt,value
2018-10-04T00:01:02.537Z,7.90
2018-10-04T00:03:31.084Z,7.90
2018-10-04T00:05:59.645Z,7.90
2018-10-04T00:08:29.054Z,7.90
2018-10-04T00:10:57.605Z,7.90
2018-10-04T00:13:26.161Z,7.90
2018-10-04T00:15:54.719Z,8.00
2018-10-04T00:18:23.294Z,8.00
2018-10-04T00:20:51.867Z,8.10
2018-10-04T00:23:20.389Z,8.10
2018-10-04T00:25:48.925Z,8.10
2018-10-04T00:28:17.494Z,8.20
2018-10-04T00:30:46.039Z,8.30
2018-10-04T00:33:14.582Z,8.20
2018-10-04T00:35:43.173Z,8.30
2018-10-04T00:38:11.697Z,8.30
2018-10-04T00:40:40.283Z,8.30
2018-10-04T00:43:08.836Z,8.30
2018-10-04T00:45:37.429Z,8.30
2018-10-04T00:48:05.994Z,8.30
2018-10-04T00:50:34.622Z,8.40
2018-10-04T00:53:03.156Z,8.40
2018-10-04T00:55:31.690Z,8.40
2018-10-04T00:58:00.295Z,8.40
2018-10-04T01:00:28.850Z,8.40
2018-10-04T01:02:57.434Z,8.50
2018-10-04T01:05:25.994Z,8.50
2018-10-04T01:07:54.557Z,8.50
2018-10-04T01:10:23.095Z,8.50
2018-10-04T01:12:51.629Z,8.50
2018-10-04T01:15:20.183Z,8.60
2018-10-04T01:17:53.213Z,8.60
2018-10-04T01:20:21.750Z,8.60
2018-10-04T01:22:50.276Z,8.60
2018-10-04T01:25:18.821Z,8.60
2018-10-04T01:27:47.373Z,8.60
2018-10-04T01:30:15.917Z,8.60
2018-10-04T01:32:44.452Z,8.60
2018-10-04T01:35:12.993Z,8.50
2018-10-04T01:37:41.551Z,8.50
2018-10-04T01:40:10.071Z,8.50
2018-10-04T01:42:38.644Z,8.50
2018-10-04T01:45:07.311Z,8.50
2018-10-04T01:47:35.849Z,8.50
2018-10-04T01:50:04.459Z,8.50
2018-10-04T01:52:33.008Z,8.60
2018-10-04T01:55:01.568Z,8.50
2018-10-04T01:57:30.122Z,8.60
2018-10-04T01:59:58.693Z,8.50
2018-10-04T02:02:27.218Z,8.60
2018-10-04T02:04:55.783Z,8.50
2018-10-04T02:07:24.311Z,8.50
2018-10-04T02:09:52.915Z,8.50
2018-10-04T02:12:21.484Z,8.50
2018-10-04T02:14:50.020Z,8.50
2018-10-04T02:17:18.588Z,8.60
2018-10-04T02:19:47.245Z,8.60
2018-10-04T02:22:15.777Z,8.50
2018-10-04T02:24:44.327Z,8.50
2018-10-04T02:27:12.884Z,8.50
2018-10-04T02:29:41.463Z,8.50
2018-10-04T02:32:10.027Z,8.50
2018-10-04T02:34:38.590Z,8.50
2018-10-04T02:37:07.149Z,8.50
2018-10-04T02:39:35.711Z,8.50
2018-10-04T02:42:04.249Z,8.50
2018-10-04T02:44:32.799Z,8.40
2018-10-04T02:47:01.361Z,8.40
2018-10-04T02:49:29.930Z,8.40
2018-10-04T02:51:58.544Z,8.40
2018-10-04T02:54:27.965Z,8.40
2018-10-04T02:57:00.833Z,8.40
2018-10-04T02:59:29.431Z,8.40
2018-10-04T03:01:57.988Z,8.40
2018-10-04T03:04:26.543Z,8.40
2018-10-04T03:06:55.104Z,8.40
2018-10-04T03:09:23.691Z,8.40
2018-10-04T03:11:52.260Z,8.40
2018-10-04T03:14:20.841Z,8.40
2018-10-04T03:16:49.377Z,8.40
2018-10-04T03:19:17.930Z,8.40
2018-10-04T03:21:46.507Z,8.40
2018-10-04T03:24:15.179Z,8.40
2018-10-04T03:26:43.781Z,8.40
2018-10-04T03:29:12.308Z,8.40
2018-10-04T03:31:40.894Z,8.40
2018-10-04T03:34:09.494Z,8.40
2018-10-04T03:36:38.037Z,8.40
2018-10-04T03:39:07.617Z,8.40
2018-10-04T03:41:36.153Z,8.40
2018-10-04T03:44:04.713Z,8.40
2018-10-04T03:46:33.313Z,8.40
2018-10-04T03:49:01.875Z,8.40
2018-10-04T03:51:30.417Z,8.40
2018-10-04T03:53:58.987Z,8.40
2018-10-04T03:56:27.535Z,8.40
2018-10-04T03:58:56.083Z,8.40
2018-10-04T04:01:24.641Z,8.30
2018-10-04T04:03:53.451Z,8.30
2018-10-04T04:06:21.990Z,8.30
2018-10-04T04:08:50.572Z,8.30
2018-10-04T04:11:19.113Z,8.30
2018-10-04T04:13:47.674Z,8.30
2018-10-04T04:16:16.243Z,8.30
2018-10-04T04:18:44.807Z,8.30
2018-10-04T04:21:13.353Z,8.30
2018-10-04T04:23:57.447Z,8.30
2018-10-04T04:26:26.000Z,8.30
2018-10-04T04:28:54.547Z,8.30
2018-10-04T04:31:23.100Z,8.30
2018-10-04T04:33:51.679Z,8.30
2018-10-04T04:36:20.245Z,8.20
2018-10-04T04:38:48.911Z,8.20
2018-10-04T04:41:17.847Z,8.30
2018-10-04T04:43:46.587Z,8.20
2018-10-04T04:46:15.158Z,8.20
2018-10-04T04:48:43.733Z,8.20
2018-10-04T04:51:12.314Z,8.20
2018-10-04T04:53:42.104Z,8.20
2018-10-04T04:56:11.133Z,8.20
2018-10-04T04:58:39.702Z,8.20
2018-10-04T05:01:08.347Z,8.20
2018-10-04T05:03:36.897Z,8.20
2018-10-04T05:06:05.589Z,8.10
2018-10-04T05:08:34.147Z,8.20
2018-10-04T05:11:02.718Z,8.20
2018-10-04T05:13:31.275Z,8.20
2018-10-04T05:15:59.862Z,8.20
2018-10-04T05:18:28.403Z,8.20
2018-10-04T05:20:56.984Z,8.20
2018-10-04T05:23:25.529Z,8.20
2018-10-04T05:25:54.059Z,8.20
2018-10-04T05:28:22.610Z,8.20
2018-10-04T05:30:51.171Z,8.20
2018-10-04T05:33:19.720Z,8.20
2018-10-04T05:35:48.259Z,8.20
2018-10-04T05:38:16.870Z,8.20
2018-10-04T05:40:45.435Z,8.20
2018-10-04T05:43:13.999Z,8.20
2018-10-04T05:45:42.547Z,8.20
2018-10-04T05:48:11.102Z,8.20
2018-10-04T05:50:39.658Z,8.20
2018-10-04T05:53:08.253Z,8.30
2018-10-04T05:55:36.804Z,8.30
2018-10-04T05:58:05.361Z,8.20
2018-10-04T06:00:35.355Z,8.30
2018-10-04T06:03:03.968Z,8.30
2018-10-04T06:05:32.580Z,8.30
2018-10-04T06:08:01.731Z,8.30
2018-10-04T06:10:30.708Z,8.30
2018-10-04T06:12:59.293Z,8.30
2018-10-04T06:15:27.873Z,8.30
2018-10-04T06:17:56.410Z,8.30
2018-10-04T06:20:26.157Z,8.30
2018-10-04T06:22:54.791Z,8.30
2018-10-04T06:25:23.346Z,8.40
2018-10-04T06:27:51.885Z,8.40
2018-10-04T06:30:20.435Z,8.40
2018-10-04T06:32:48.978Z,8.50
2018-10-04T06:35:17.626Z,8.50
2018-10-04T06:37:46.179Z,8.60
2018-10-04T06:40:14.787Z,8.60
2018-10-04T06:42:43.347Z,8.60
2018-10-04T06:45:11.892Z,8.60
2018-10-04T06:47:40.472Z,8.60
2018-10-04T06:50:09.032Z,8.60
2018-10-04T06:52:37.576Z,8.60
2018-10-04T06:55:06.165Z,8.60
2018-10-04T06:57:34.754Z,8.60
2018-10-04T07:00:03.625Z,8.70
2018-10-04T07:02:32.218Z,8.80
2018-10-04T07:05:00.802Z,8.90
2018-10-04T07:07:29.375Z,9.00
2018-10-04T07:09:57.990Z,9.10
2018-10-04T07:12:26.662Z,9.20
2018-10-04T07:14:55.206Z,9.30
2018-10-04T07:17:23.739Z,9.50
2018-10-04T07:19:52.812Z,9.60
2018-10-04T07:22:21.390Z,9.70
2018-10-04T07:24:49.945Z,9.80
2018-10-04T07:27:18.503Z,9.80
2018-10-04T07:29:47.059Z,9.90
2018-10-04T07:32:15.636Z,10.00
2018-10-04T07:34:44.201Z,10.10
2018-10-04T07:37:12.796Z,10.20
2018-10-04T07:39:41.346Z,10.30
2018-10-04T07:42:09.904Z,10.50
2018-10-04T07:44:38.467Z,10.60
2018-10-04T07:47:07.097Z,10.70
2018-10-04T07:49:35.647Z,10.80
2018-10-04T07:52:04.224Z,10.90
2018-10-04T07:54:32.776Z,10.90
2018-10-04T07:57:01.313Z,11.00
2018-10-04T07:59:29.875Z,11.20
2018-10-04T08:01:58.493Z,11.40
2018-10-04T08:04:27.029Z,11.60
2018-10-04T08:06:55.608Z,11.70
2018-10-04T08:09:24.207Z,11.80
2018-10-04T08:11:52.753Z,11.80
2018-10-04T08:14:21.319Z,12.00
2018-10-04T08:16:49.890Z,12.10
2018-10-04T08:19:18.463Z,12.30
2018-10-04T08:21:47.010Z,12.40
2018-10-04T08:24:15.594Z,12.40
2018-10-04T08:26:44.157Z,12.20
2018-10-04T08:29:12.750Z,12.10
2018-10-04T08:31:41.305Z,12.30
2018-10-04T08:34:09.888Z,12.70
2018-10-04T08:36:38.450Z,12.90
2018-10-04T08:39:08.796Z,13.10
2018-10-04T08:41:37.825Z,13.40
2018-10-04T08:44:06.558Z,13.30
2018-10-04T08:46:35.109Z,13.00
2018-10-04T08:49:03.674Z,12.80
2018-10-04T08:51:37.364Z,12.70
2018-10-04T08:54:06.062Z,12.40
2018-10-04T08:56:34.599Z,12.20
2018-10-04T08:59:03.152Z,12.20
2018-10-04T09:01:31.707Z,12.40
2018-10-04T09:04:04.674Z,12.40
2018-10-04T09:06:34.057Z,12.60
2018-10-04T09:09:02.693Z,12.90
2018-10-04T09:11:31.235Z,12.90
2018-10-04T09:13:59.833Z,12.80
2018-10-04T09:16:28.385Z,12.90
2018-10-04T09:18:56.967Z,13.00
2018-10-04T09:21:25.567Z,13.10
2018-10-04T09:23:54.119Z,13.30
2018-10-04T09:26:22.756Z,13.30
2018-10-04T09:28:56.559Z,13.20
2018-10-04T09:31:43.471Z,13.20
2018-10-04T09:34:12.205Z,13.10
2018-10-04T09:36:40.895Z,13.00
2018-10-04T09:39:11.040Z,12.90
2018-10-04T09:41:40.180Z,12.90
2018-10-04T09:44:08.788Z,13.10
2018-10-04T09:46:37.472Z,13.20
2018-10-04T09:49:06.366Z,13.10
2018-10-04T09:51:40.193Z,13.20
2018-10-04T09:54:08.976Z,13.20
2018-10-04T09:56:42.698Z,13.20
2018-10-04T09:59:11.363Z,13.20
2018-10-04T10:01:45.233Z,13.00
2018-10-04T10:04:13.880Z,12.90
2018-10-04T10:06:42.423Z,12.90
2018-10-04T10:09:11.050Z,13.10
2018-10-04T10:11:39.699Z,13.40
2018-10-04T10:14:08.250Z,13.30
2018-10-04T10:16:36.825Z,13.40
2018-10-04T10:19:05.425Z,13.70
2018-10-04T10:21:34.007Z,13.80
2018-10-04T10:24:02.552Z,14.00
2018-10-04T10:26:31.116Z,14.10
2018-10-04T10:28:59.681Z,14.00
2018-10-04T10:31:28.250Z,14.00
2018-10-04T10:33:56.803Z,13.90
2018-10-04T10:36:25.426Z,13.80
2018-10-04T10:38:53.988Z,14.00
2018-10-04T10:41:22.563Z,14.10
2018-10-04T10:43:51.112Z,14.10
2018-10-04T10:46:19.660Z,14.00
2018-10-04T10:48:48.235Z,13.90
2018-10-04T10:51:16.802Z,13.90
2018-10-04T10:53:45.361Z,14.10
2018-10-04T10:56:13.956Z,14.30
2018-10-04T10:58:42.543Z,14.50
2018-10-04T11:01:11.088Z,14.50
2018-10-04T11:03:39.641Z,14.60
2018-10-04T11:06:08.256Z,14.60
2018-10-04T11:08:36.838Z,14.60
2018-10-04T11:11:05.392Z,14.60
2018-10-04T11:13:33.936Z,14.70
2018-10-04T11:16:02.526Z,14.70
2018-10-04T11:18:31.096Z,14.80
2018-10-04T11:20:59.674Z,14.90
2018-10-04T11:23:28.240Z,14.90
2018-10-04T11:25:56.807Z,14.90
2018-10-04T11:28:25.377Z,15.00
2018-10-04T11:30:54.055Z,15.10
2018-10-04T11:33:22.636Z,15.40
2018-10-04T11:35:51.211Z,15.30
2018-10-04T11:38:20.417Z,15.00
2018-10-04T11:40:49.032Z,14.80
2018-10-04T11:43:19.814Z,14.70
2018-10-04T11:45:49.428Z,14.70
2018-10-04T11:48:21.326Z,14.50
2018-10-04T11:50:49.970Z,14.30
2018-10-04T11:53:18.520Z,14.20
2018-10-04T11:55:47.147Z,14.20
2018-10-04T11:58:16.560Z,14.50
2018-10-04T12:00:45.197Z,14.90
2018-10-04T12:03:13.764Z,15.20
2018-10-04T12:05:42.323Z,15.10
2018-10-04T12:08:10.897Z,14.90
2018-10-04T12:10:39.512Z,14.70
2018-10-04T12:13:08.126Z,14.50
2018-10-04T12:15:36.666Z,14.40
2018-10-04T12:18:05.229Z,14.70
2018-10-04T12:20:33.808Z,14.90
2018-10-04T12:23:02.361Z,15.10
2018-10-04T12:25:30.901Z,15.10
2018-10-04T12:27:59.459Z,15.00
2018-10-04T12:30:28.805Z,15.10
2018-10-04T12:32:57.660Z,15.50
2018-10-04T12:35:26.279Z,15.70
2018-10-04T12:37:54.953Z,15.90
2018-10-04T12:40:23.565Z,16.10
2018-10-04T12:42:52.206Z,16.10
2018-10-04T12:45:20.822Z,16.00
2018-10-04T12:47:49.454Z,15.70
2018-10-04T12:50:18.116Z,15.70
2018-10-04T12:52:46.729Z,15.90
2018-10-04T12:55:18.212Z,16.00
2018-10-04T12:57:47.223Z,16.10
2018-10-04T13:00:15.978Z,16.30
2018-10-04T13:02:44.602Z,16.40
2018-10-04T13:05:13.201Z,16.40
2018-10-04T13:07:41.785Z,16.50
2018-10-04T13:10:10.377Z,16.50
2018-10-04T13:12:38.948Z,16.40
2018-10-04T13:15:07.563Z,16.30
2018-10-04T13:17:36.129Z,16.30
2018-10-04T13:20:04.909Z,16.30
2018-10-04T13:22:33.490Z,16.40
2018-10-04T13:25:02.449Z,16.60
2018-10-04T13:27:31.093Z,16.70
2018-10-04T13:30:00.792Z,16.70
2018-10-04T13:32:29.425Z,16.70
2018-10-04T13:34:58.029Z,16.70
2018-10-04T13:37:26.662Z,16.70
2018-10-04T13:39:55.250Z,16.70
2018-10-04T13:42:23.910Z,16.70
2018-10-04T13:44:52.844Z,16.70
2018-10-04T13:47:21.428Z,16.60
2018-10-04T13:49:50.071Z,16.40
2018-10-04T13:52:18.705Z,16.30
2018-10-04T13:54:47.305Z,16.10
2018-10-04T13:57:15.945Z,16.10
2018-10-04T13:59:44.547Z,16.00
2018-10-04T14:02:13.165Z,15.80
2018-10-04T14:04:41.776Z,15.80
2018-10-04T14:07:10.411Z,15.80
2018-10-04T14:09:39.067Z,15.80
2018-10-04T14:12:07.726Z,15.80
2018-10-04T14:14:36.344Z,15.80
2018-10-04T14:17:04.997Z,15.80
2018-10-04T14:19:33.668Z,15.80
2018-10-04T14:22:02.308Z,15.80
2018-10-04T14:24:30.915Z,15.80
2018-10-04T14:26:59.631Z,15.80
2018-10-04T14:29:28.485Z,15.80
2018-10-04T14:31:57.100Z,15.70
2018-10-04T14:34:25.941Z,15.70
2018-10-04T14:36:54.543Z,15.70
2018-10-04T14:39:23.197Z,15.60
2018-10-04T14:41:51.772Z,15.60
2018-10-04T14:44:20.368Z,15.60
2018-10-04T14:46:49.096Z,15.60
2018-10-04T14:49:17.705Z,15.60
2018-10-04T14:51:46.390Z,15.50
2018-10-04T14:54:14.993Z,15.40
2018-10-04T14:56:43.606Z,15.50
2018-10-04T14:59:12.234Z,15.50
2018-10-04T15:01:41.236Z,15.40
2018-10-04T15:04:09.821Z,15.20
2018-10-04T15:06:38.918Z,15.20
2018-10-04T15:09:09.422Z,15.10
2018-10-04T15:11:38.266Z,15.00
2018-10-04T15:14:06.701Z,14.90
2018-10-04T15:16:35.303Z,14.90
2018-10-04T15:19:03.977Z,14.80
2018-10-04T15:21:32.553Z,14.90
2018-10-04T15:24:01.113Z,14.80
2018-10-04T15:26:29.677Z,14.80
2018-10-04T15:28:58.253Z,14.70
2018-10-04T15:31:26.825Z,14.60
2018-10-04T15:33:55.428Z,14.50
2018-10-04T15:36:23.980Z,14.50
2018-10-04T15:38:52.606Z,14.40
2018-10-04T15:41:21.184Z,14.40
2018-10-04T15:43:49.797Z,14.30
2018-10-04T15:46:18.321Z,14.30
2018-10-04T15:48:46.892Z,14.20
2018-10-04T15:51:15.473Z,14.10
2018-10-04T15:53:44.032Z,14.10
2018-10-04T15:56:12.585Z,14.10
2018-10-04T15:58:41.124Z,14.10
2018-10-04T16:01:09.737Z,14.00
2018-10-04T16:03:38.331Z,14.00
2018-10-04T16:06:07.323Z,14.00
2018-10-04T16:08:36.349Z,13.90
2018-10-04T16:11:05.003Z,13.90
2018-10-04T16:13:33.670Z,13.80
2018-10-04T16:16:02.619Z,13.70
2018-10-04T16:18:31.188Z,13.70
2018-10-04T16:20:59.774Z,13.60
2018-10-04T16:23:28.331Z,13.50
2018-10-04T16:25:56.901Z,13.40
2018-10-04T16:28:25.463Z,13.30
2018-10-04T16:30:54.021Z,13.30
2018-10-04T16:33:22.594Z,13.10
2018-10-04T16:35:51.188Z,13.00
2018-10-04T16:38:19.803Z,12.90
2018-10-04T16:40:48.367Z,12.80
2018-10-04T16:43:16.949Z,12.70
2018-10-04T16:45:45.578Z,12.60
2018-10-04T16:48:14.156Z,12.50
2018-10-04T16:50:42.746Z,12.40
2018-10-04T16:53:11.294Z,12.10
2018-10-04T16:55:39.834Z,12.10
2018-10-04T16:58:08.431Z,11.90
2018-10-04T17:00:37.027Z,11.80
2018-10-04T17:03:05.672Z,11.70
2018-10-04T17:05:34.217Z,11.60
2018-10-04T17:08:02.784Z,11.40
2018-10-04T17:10:31.390Z,11.30
2018-10-04T17:12:59.946Z,11.20
2018-10-04T17:15:28.513Z,11.10
2018-10-04T17:17:57.118Z,11.00
2018-10-04T17:20:25.669Z,10.90
2018-10-04T17:22:54.204Z,10.80
2018-10-04T17:25:22.868Z,10.80
2018-10-04T17:27:51.421Z,10.70
2018-10-04T17:30:20.003Z,10.60
2018-10-04T17:32:48.575Z,10.50
2018-10-04T17:35:17.287Z,10.50
2018-10-04T17:37:45.839Z,10.40
2018-10-04T17:40:14.445Z,10.30
2018-10-04T17:42:43.059Z,10.30
2018-10-04T17:45:11.795Z,10.20
2018-10-04T17:47:40.528Z,10.10
2018-10-04T17:50:09.118Z,10.00
2018-10-04T17:52:37.783Z,10.00
2018-10-04T17:55:06.531Z,9.90
2018-10-04T17:57:39.529Z,9.80
2018-10-04T18:00:11.907Z,9.70
2018-10-04T18:02:40.559Z,9.60
2018-10-04T18:05:09.990Z,9.60
2018-10-04T18:07:38.733Z,9.50
2018-10-04T18:10:07.320Z,9.40
2018-10-04T18:12:35.894Z,9.40
2018-10-04T18:15:04.866Z,9.30
2018-10-04T18:17:33.484Z,9.30
2018-10-04T18:20:02.100Z,9.20
2018-10-04T18:22:30.686Z,9.20
2018-10-04T18:24:59.255Z,9.20
2018-10-04T18:27:27.892Z,9.20
2018-10-04T18:29:56.454Z,9.20
2018-10-04T18:32:25.052Z,9.10
2018-10-04T18:34:53.621Z,9.10
2018-10-04T18:37:22.197Z,9.00
2018-10-04T18:39:50.728Z,9.00
2018-10-04T18:42:19.272Z,9.00
2018-10-04T18:44:47.896Z,9.00
2018-10-04T18:47:16.459Z,9.00
2018-10-04T18:49:45.115Z,9.00
2018-10-04T18:52:14.604Z,9.10
2018-10-04T18:54:43.250Z,9.10
2018-10-04T18:57:11.926Z,9.10
2018-10-04T18:59:40.695Z,9.10
2018-10-04T19:02:09.327Z,9.10
2018-10-04T19:04:37.948Z,9.20
2018-10-04T19:07:06.540Z,9.20
2018-10-04T19:09:35.118Z,9.30
2018-10-04T19:12:03.681Z,9.30
2018-10-04T19:14:32.242Z,9.40
2018-10-04T19:17:00.830Z,9.50
2018-10-04T19:19:29.419Z,9.50
2018-10-04T19:21:57.978Z,9.60
2018-10-04T19:24:26.548Z,9.60
2018-10-04T19:26:55.127Z,9.60
2018-10-04T19:29:23.807Z,9.60
2018-10-04T19:31:52.415Z,9.60
2018-10-04T19:34:20.992Z,9.70
2018-10-04T19:36:49.572Z,9.70
2018-10-04T19:39:18.163Z,9.70
2018-10-04T19:41:46.756Z,9.70
2018-10-04T19:44:15.317Z,9.70
2018-10-04T19:46:43.902Z,9.80
2018-10-04T19:49:12.447Z,9.80
2018-10-04T19:51:40.992Z,9.80
2018-10-04T19:54:09.545Z,9.80
2018-10-04T19:56:38.117Z,9.80
2018-10-04T19:59:06.669Z,9.90
2018-10-04T20:01:35.251Z,9.90
2018-10-04T20:04:03.930Z,9.90
2018-10-04T20:06:32.485Z,9.90
2018-10-04T20:09:01.037Z,10.00
2018-10-04T20:11:29.615Z,10.00
2018-10-04T20:13:58.179Z,10.00
2018-10-04T20:16:26.720Z,10.10
2018-10-04T20:18:55.301Z,10.20
2018-10-04T20:21:23.915Z,10.20
2018-10-04T20:23:52.516Z,10.20
2018-10-04T20:26:21.132Z,10.10
2018-10-04T20:28:49.697Z,10.20
2018-10-04T20:31:18.266Z,10.40
2018-10-04T20:33:46.849Z,10.50
2018-10-04T20:36:15.429Z,10.50
2018-10-04T20:38:43.990Z,10.60
2018-10-04T20:41:12.559Z,10.50
2018-10-04T20:43:41.140Z,10.50
2018-10-04T20:46:09.775Z,10.40
2018-10-04T20:48:38.323Z,10.40
2018-10-04T20:51:06.898Z,10.40
2018-10-04T20:53:35.873Z,10.40
2018-10-04T20:56:04.468Z,10.40
2018-10-04T20:58:33.058Z,10.40
2018-10-04T21:01:01.671Z,10.40
2018-10-04T21:03:30.274Z,10.40
2018-10-04T21:05:58.846Z,10.40
2018-10-04T21:08:27.431Z,10.40
2018-10-04T21:10:55.998Z,10.40
2018-10-04T21:13:24.558Z,10.50
2018-10-04T21:15:53.177Z,10.60
2018-10-04T21:18:21.750Z,10.60
2018-10-04T21:20:50.350Z,10.60
2018-10-04T21:23:18.960Z,10.60
2018-10-04T21:25:47.525Z,10.60
2018-10-04T21:28:16.078Z,10.60
2018-10-04T21:30:44.661Z,10.60
2018-10-04T21:33:13.229Z,10.60
2018-10-04T21:35:41.939Z,10.50
2018-10-04T21:38:10.528Z,10.60
2018-10-04T21:40:39.085Z,10.50
2018-10-04T21:43:07.765Z,10.50
2018-10-04T21:45:36.301Z,10.50
2018-10-04T21:48:04.906Z,10.40
2018-10-04T21:50:33.510Z,10.40
2018-10-04T21:53:02.168Z,10.40
2018-10-04T21:55:30.774Z,10.40
2018-10-04T21:58:00.269Z,10.40
2018-10-04T22:00:29.357Z,10.40
2018-10-04T22:02:58.392Z,10.50
2018-10-04T22:05:27.585Z,10.50
2018-10-04T22:07:56.225Z,10.50
2018-10-04T22:10:24.782Z,10.50
2018-10-04T22:12:53.508Z,10.50
2018-10-04T22:15:22.061Z,10.60
2018-10-04T22:17:50.626Z,10.60
2018-10-04T22:20:19.176Z,10.50
2018-10-04T22:22:47.761Z,10.50
2018-10-04T22:25:16.338Z,10.50
2018-10-04T22:27:44.895Z,10.40
2018-10-04T22:30:13.464Z,10.40
2018-10-04T22:32:42.132Z,10.40
2018-10-04T22:35:10.727Z,10.40
2018-10-04T22:37:39.277Z,10.40
2018-10-04T22:40:07.843Z,10.40
2018-10-04T22:42:36.386Z,10.30
2018-10-04T22:45:05.162Z,10.30
2018-10-04T22:47:33.766Z,10.30
2018-10-04T22:50:02.328Z,10.40
2018-10-04T22:52:30.960Z,10.30
2018-10-04T22:54:59.521Z,10.30
2018-10-04T22:57:28.086Z,10.30
2018-10-04T22:59:56.765Z,10.30
2018-10-04T23:02:25.329Z,10.30
2018-10-04T23:04:53.895Z,10.30
2018-10-04T23:07:22.453Z,10.30
2018-10-04T23:09:51.008Z,10.40
2018-10-04T23:12:19.557Z,10.40
2018-10-04T23:14:48.169Z,10.40
2018-10-04T23:17:16.756Z,10.40
2018-10-04T23:19:45.341Z,10.40
2018-10-04T23:22:13.872Z,10.40
2018-10-04T23:24:42.418Z,10.30
2018-10-04T23:27:10.962Z,10.30
2018-10-04T23:29:39.521Z,10.30
2018-10-04T23:32:08.100Z,10.30
2018-10-04T23:34:36.637Z,10.30
2018-10-04T23:37:05.413Z,10.30
2018-10-04T23:39:33.950Z,10.20
2018-10-04T23:42:02.558Z,10.20
2018-10-04T23:44:31.146Z,10.20
2018-10-04T23:46:59.713Z,10.20
2018-10-04T23:49:28.313Z,10.20
2018-10-04T23:51:56.921Z,10.20
2018-10-04T23:54:25.479Z,10.10
2018-10-04T23:56:54.054Z,10.10
2018-10-04T23:59:22.596Z,10.00
